createdAt,value
2022-08-19T00:02:01.922Z,55.91
2022-08-19T00:04:33.562Z,56.74
2022-08-19T00:07:00.947Z,56.44
2022-08-19T00:09:28.439Z,56.73
2022-08-19T00:11:57.394Z,56.80
2022-08-19T00:14:26.313Z,56.68
2022-08-19T00:16:55.475Z,58.39
2022-08-19T00:19:23.777Z,58.02
2022-08-19T00:21:51.233Z,57.49
2022-08-19T00:24:17.943Z,58.92
2022-08-19T00:26:46.427Z,57.10
2022-08-19T00:29:16.011Z,55.88
2022-08-19T00:31:44.110Z,55.83
2022-08-19T00:34:12.892Z,55.88
2022-08-19T00:36:40.588Z,55.55
2022-08-19T00:39:07.674Z,55.57
2022-08-19T00:41:34.784Z,55.64
2022-08-19T00:44:15.788Z,56.23
2022-08-19T00:46:45.025Z,55.88
2022-08-19T00:49:38.772Z,56.55
2022-08-19T00:52:09.614Z,57.01
2022-08-19T00:54:38.212Z,57.35
2022-08-19T00:57:08.939Z,56.36
2022-08-19T01:00:00.272Z,55.78
2022-08-19T01:02:28.679Z,55.94
2022-08-19T01:04:55.808Z,56.08
2022-08-19T01:07:22.707Z,56.42
2022-08-19T01:09:50.908Z,56.39
2022-08-19T01:12:19.192Z,55.45
2022-08-19T01:14:47.727Z,55.12
2022-08-19T01:17:16.125Z,56.14
2022-08-19T01:19:46.207Z,57.16
2022-08-19T01:22:16.689Z,55.44
2022-08-19T01:24:47.426Z,55.56
2022-08-19T01:27:17.868Z,56.05
2022-08-19T01:29:46.032Z,56.08
2022-08-19T01:32:33.533Z,55.69
2022-08-19T01:35:02.859Z,55.34
2022-08-19T01:37:30.450Z,55.87
2022-08-19T01:39:57.488Z,56.65
2022-08-19T01:42:30.307Z,56.25
2022-08-19T01:44:58.480Z,55.83
2022-08-19T01:47:25.410Z,55.25
2022-08-19T01:49:52.133Z,55.29
2022-08-19T01:52:18.778Z,55.54
2022-08-19T01:54:45.472Z,56.76
2022-08-19T01:57:14.468Z,57.83
2022-08-19T01:59:43.854Z,58.48
2022-08-19T02:02:10.552Z,57.95
2022-08-19T02:04:39.147Z,58.16
2022-08-19T02:07:07.351Z,57.71
2022-08-19T02:09:34.152Z,56.93
2022-08-19T02:12:01.003Z,56.51
2022-08-19T02:14:28.099Z,56.56
2022-08-19T02:16:54.736Z,57.38
2022-08-19T02:19:21.520Z,57.18
2022-08-19T02:21:48.499Z,57.42
2022-08-19T02:24:15.214Z,57.12
2022-08-19T02:26:41.861Z,57.50
2022-08-19T02:29:08.836Z,57.39
2022-08-19T02:31:35.510Z,57.24
2022-08-19T02:34:02.242Z,57.57
2022-08-19T02:36:29.215Z,57.00
2022-08-19T02:38:56.976Z,57.98
2022-08-19T02:41:29.280Z,58.02
2022-08-19T02:44:29.791Z,58.03
2022-08-19T02:46:47.433Z,57.95
2022-08-19T02:49:17.547Z,58.30
2022-08-19T02:51:46.517Z,59.36
2022-08-19T02:54:14.656Z,59.67
2022-08-19T02:56:44.131Z,60.68
2022-08-19T02:59:11.164Z,61.48
2022-08-19T03:01:40.725Z,60.67
2022-08-19T03:04:09.134Z,60.78
2022-08-19T03:06:41.798Z,60.30
2022-08-19T03:09:09.059Z,59.47
2022-08-19T03:11:35.912Z,59.60
2022-08-19T03:14:04.685Z,59.91
2022-08-19T03:16:34.983Z,59.30
2022-08-19T03:19:02.758Z,61.51
2022-08-19T03:21:34.828Z,61.28
2022-08-19T03:24:08.805Z,59.61
2022-08-19T03:26:40.801Z,59.59
2022-08-19T03:29:11.724Z,60.68
2022-08-19T03:31:51.080Z,61.32
2022-08-19T03:34:29.774Z,60.72
2022-08-19T03:36:59.475Z,60.42
2022-08-19T03:39:27.412Z,60.11
2022-08-19T03:42:29.207Z,59.14
2022-08-19T03:44:45.946Z,59.28
2022-08-19T03:49:44.831Z,62.13
2022-08-19T03:52:11.533Z,61.92
2022-08-19T03:54:39.378Z,60.03
2022-08-19T03:57:07.128Z,60.14
2022-08-19T03:59:36.416Z,60.61
2022-08-19T04:02:09.448Z,59.71
2022-08-19T04:04:37.005Z,58.67
2022-08-19T04:07:03.942Z,58.62
2022-08-19T04:09:30.594Z,58.45
2022-08-19T04:11:58.567Z,57.94
2022-08-19T04:14:30.492Z,58.68
2022-08-19T04:16:58.051Z,59.28
2022-08-19T04:19:24.932Z,60.21
2022-08-19T04:21:54.419Z,60.59
2022-08-19T04:24:22.839Z,60.07
2022-08-19T04:26:50.292Z,60.04
2022-08-19T04:29:23.094Z,59.89
2022-08-19T04:31:50.849Z,59.88
2022-08-19T04:34:23.288Z,59.24
2022-08-19T04:36:52.106Z,60.33
2022-08-19T04:39:23.264Z,59.75
2022-08-19T04:42:08.240Z,60.40
2022-08-19T04:44:39.875Z,59.92
2022-08-19T04:47:13.306Z,59.88
2022-08-19T04:49:40.057Z,60.04
2022-08-19T04:52:06.739Z,60.07
2022-08-19T04:54:37.645Z,60.44
2022-08-19T04:57:08.479Z,59.73
2022-08-19T04:59:36.188Z,59.20
2022-08-19T05:02:03.905Z,59.53
2022-08-19T05:04:33.358Z,60.55
2022-08-19T05:07:01.907Z,60.64
2022-08-19T05:09:53.299Z,60.01
2022-08-19T05:12:17.743Z,60.31
2022-08-19T05:14:46.050Z,61.09
2022-08-19T05:17:27.272Z,62.53
2022-08-19T05:20:14.592Z,61.49
2022-08-19T05:22:43.447Z,63.26
2022-08-19T05:25:14.696Z,62.77
2022-08-19T05:27:43.105Z,61.50
2022-08-19T05:30:12.278Z,62.45
2022-08-19T05:32:40.268Z,63.28
2022-08-19T05:35:07.496Z,62.11
2022-08-19T05:37:34.296Z,61.43
2022-08-19T05:40:01.193Z,61.99
2022-08-19T05:42:27.867Z,62.47
2022-08-19T05:44:54.761Z,61.53
2022-08-19T05:47:22.293Z,62.46
2022-08-19T05:49:50.878Z,62.44
2022-08-19T05:52:18.991Z,62.79
2022-08-19T05:54:51.501Z,64.09
2022-08-19T05:57:19.904Z,63.65
2022-08-19T05:59:52.715Z,62.98
2022-08-19T06:02:24.744Z,62.79
2022-08-19T06:04:51.422Z,63.00
2022-08-19T06:07:18.058Z,63.67
2022-08-19T06:09:59.048Z,63.66
2022-08-19T06:12:31.662Z,63.78
2022-08-19T06:15:01.659Z,64.40
2022-08-19T06:17:31.466Z,64.10
2022-08-19T06:19:59.496Z,64.41
2022-08-19T06:22:26.808Z,64.16
2022-08-19T06:24:55.027Z,62.98
2022-08-19T06:27:22.657Z,62.32
2022-08-19T06:29:50.930Z,63.20
2022-08-19T06:32:19.642Z,62.36
2022-08-19T06:34:47.368Z,62.20
2022-08-19T06:37:14.502Z,61.90
2022-08-19T06:39:44.183Z,62.41
2022-08-19T06:42:14.301Z,62.62
2022-08-19T06:44:43.785Z,62.45
2022-08-19T06:47:23.368Z,62.21
2022-08-19T06:49:55.149Z,62.54
2022-08-19T06:52:27.766Z,63.46
2022-08-19T06:54:56.990Z,63.19
2022-08-19T06:57:27.630Z,62.66
2022-08-19T06:59:54.520Z,61.80
2022-08-19T07:02:21.823Z,61.40
2022-08-19T07:04:52.643Z,61.71
2022-08-19T07:07:21.871Z,60.96
2022-08-19T07:09:51.766Z,60.89
2022-08-19T07:12:30.939Z,60.87
2022-08-19T07:14:59.029Z,62.14
2022-08-19T07:17:26.906Z,63.21
2022-08-19T07:19:54.110Z,63.48
2022-08-19T07:22:24.347Z,61.94
2022-08-19T07:24:52.697Z,63.88
2022-08-19T07:27:24.356Z,64.64
2022-08-19T07:29:56.163Z,64.39
2022-08-19T07:32:26.848Z,63.93
2022-08-19T07:34:53.670Z,63.53
2022-08-19T07:37:20.332Z,63.08
2022-08-19T07:39:47.045Z,63.81
2022-08-19T07:42:14.750Z,65.94
2022-08-19T07:44:42.287Z,64.21
2022-08-19T07:47:48.306Z,65.46
2022-08-19T07:50:07.768Z,64.75
2022-08-19T07:52:36.935Z,66.04
2022-08-19T07:55:05.273Z,66.34
2022-08-19T07:57:32.227Z,65.52
2022-08-19T07:59:59.990Z,65.03
2022-08-19T08:02:26.987Z,65.23
2022-08-19T08:05:12.404Z,64.17
2022-08-19T08:07:59.151Z,63.68
2022-08-19T08:10:26.162Z,65.75
2022-08-19T08:13:08.559Z,62.80
2022-08-19T08:15:42.630Z,62.85
2022-08-19T08:18:10.858Z,61.84
2022-08-19T08:20:37.739Z,62.91
2022-08-19T08:23:23.234Z,62.28
2022-08-19T08:25:50.454Z,62.46
2022-08-19T08:28:20.864Z,61.14
2022-08-19T08:30:50.632Z,62.44
2022-08-19T08:33:33.236Z,61.24
2022-08-19T08:36:10.410Z,60.44
2022-08-19T08:38:40.493Z,61.03
2022-08-19T08:41:20.731Z,60.94
2022-08-19T08:43:50.199Z,61.22
2022-08-19T08:46:31.381Z,60.88
2022-08-19T08:49:02.643Z,60.91
2022-08-19T08:51:44.065Z,60.97
2022-08-19T08:54:19.395Z,61.10
2022-08-19T08:56:48.882Z,60.07
2022-08-19T08:59:36.341Z,60.57
2022-08-19T09:02:03.304Z,58.97
2022-08-19T09:04:30.326Z,57.92
2022-08-19T09:07:33.866Z,57.00
2022-08-19T09:09:57.481Z,57.44
2022-08-19T09:12:47.297Z,57.70
2022-08-19T09:15:17.200Z,58.43
2022-08-19T09:17:43.850Z,57.84
2022-08-19T09:20:21.295Z,57.46
2022-08-19T09:22:50.191Z,56.62
2022-08-19T09:25:26.804Z,56.90
2022-08-19T09:28:01.168Z,56.57
2022-08-19T09:30:33.251Z,55.73
2022-08-19T09:33:00.761Z,55.45
2022-08-19T09:35:30.513Z,55.95
2022-08-19T09:38:00.073Z,56.02
2022-08-19T09:40:32.622Z,55.53
2022-08-19T09:43:09.969Z,55.45
2022-08-19T09:45:39.686Z,56.28
2022-08-19T09:48:07.251Z,55.73
2022-08-19T09:50:36.026Z,55.22
2022-08-19T09:53:02.726Z,55.52
2022-08-19T09:55:31.840Z,55.04
2022-08-19T09:58:00.811Z,54.17
2022-08-19T10:00:27.886Z,54.92
2022-08-19T10:02:54.528Z,54.86
2022-08-19T10:05:42.394Z,54.13
2022-08-19T10:08:13.103Z,55.16
2022-08-19T10:10:46.323Z,54.72
2022-08-19T10:13:15.305Z,54.23
2022-08-19T10:15:47.438Z,54.01
2022-08-19T10:18:17.732Z,53.62
2022-08-19T10:20:46.488Z,53.53
2022-08-19T10:23:21.075Z,52.37
2022-08-19T10:25:49.083Z,53.39
2022-08-19T10:28:16.094Z,52.54
2022-08-19T10:30:47.520Z,52.71
2022-08-19T10:33:15.026Z,52.58
2022-08-19T10:35:42.594Z,52.74
2022-08-19T10:38:22.916Z,52.96
2022-08-19T10:40:59.569Z,51.95
2022-08-19T10:43:26.270Z,52.16
2022-08-19T10:45:59.483Z,51.93
2022-08-19T10:48:26.292Z,52.64
2022-08-19T10:51:22.754Z,51.41
2022-08-19T10:53:50.655Z,52.13
2022-08-19T10:56:36.984Z,51.96
2022-08-19T10:59:04.408Z,52.05
2022-08-19T11:01:34.242Z,51.58
2022-08-19T11:04:03.345Z,51.50
2022-08-19T11:06:32.683Z,51.30
2022-08-19T11:09:00.991Z,51.56
2022-08-19T11:11:29.440Z,51.51
2022-08-19T11:13:56.576Z,51.13
2022-08-19T11:16:26.337Z,51.13
2022-08-19T11:18:55.983Z,50.65
2022-08-19T11:21:26.786Z,51.46
2022-08-19T11:23:56.945Z,51.32
2022-08-19T11:26:25.190Z,50.79
2022-08-19T11:28:55.253Z,51.47
2022-08-19T11:31:29.497Z,51.30
2022-08-19T11:34:00.931Z,51.95
2022-08-19T11:36:28.280Z,52.79
2022-08-19T11:38:55.046Z,52.80
2022-08-19T11:41:24.390Z,52.35
2022-08-19T11:43:53.939Z,52.54
2022-08-19T11:46:21.109Z,52.42
2022-08-19T11:48:49.107Z,52.42
2022-08-19T11:51:19.847Z,51.64
2022-08-19T11:53:46.769Z,52.21
2022-08-19T11:56:13.711Z,52.55
2022-08-19T11:58:43.070Z,53.81
2022-08-19T12:01:12.132Z,53.13
2022-08-19T12:03:39.360Z,54.92
2022-08-19T12:06:08.453Z,53.90
2022-08-19T12:08:35.679Z,52.35
2022-08-19T12:11:02.532Z,52.92
2022-08-19T12:13:31.110Z,52.67
2022-08-19T12:15:59.277Z,53.57
2022-08-19T12:18:26.035Z,53.23
2022-08-19T12:20:55.604Z,53.41
2022-08-19T12:23:22.287Z,54.99
2022-08-19T12:25:52.885Z,53.40
2022-08-19T12:28:25.074Z,53.65
2022-08-19T12:30:52.380Z,54.60
2022-08-19T12:33:24.580Z,55.14
2022-08-19T12:35:51.564Z,52.10
2022-08-19T12:38:18.838Z,52.23
2022-08-19T12:40:50.474Z,51.15
2022-08-19T12:43:17.150Z,50.99
2022-08-19T12:45:45.144Z,51.88
2022-08-19T12:48:34.855Z,50.87
2022-08-19T12:51:06.558Z,51.08
2022-08-19T12:53:33.215Z,51.17
2022-08-19T12:56:01.482Z,51.58
2022-08-19T12:58:29.938Z,52.43
2022-08-19T13:00:56.735Z,52.08
2022-08-19T13:03:28.479Z,52.06
2022-08-19T13:05:55.146Z,50.24
2022-08-19T13:08:21.788Z,49.50
2022-08-19T13:10:48.447Z,47.13
2022-08-19T13:13:15.123Z,47.25
2022-08-19T13:15:43.264Z,45.83
2022-08-19T13:18:11.350Z,45.52
2022-08-19T13:20:38.850Z,46.63
2022-08-19T13:23:05.718Z,48.44
2022-08-19T13:25:32.635Z,48.77
2022-08-19T13:28:00.765Z,49.59
2022-08-19T13:30:47.225Z,49.36
2022-08-19T13:33:16.688Z,51.06
2022-08-19T13:35:50.783Z,50.79
2022-08-19T13:38:21.547Z,49.25
2022-08-19T13:40:52.528Z,48.39
2022-08-19T13:43:23.819Z,47.39
2022-08-19T13:45:54.881Z,47.43
2022-08-19T13:48:21.754Z,48.33
2022-08-19T13:50:49.159Z,49.26
2022-08-19T13:53:17.137Z,50.01
2022-08-19T13:55:44.786Z,50.19
2022-08-19T13:58:12.571Z,52.11
2022-08-19T14:00:45.727Z,53.57
2022-08-19T14:03:12.626Z,53.27
2022-08-19T14:05:39.635Z,54.86
2022-08-19T14:08:06.611Z,56.29
2022-08-19T14:10:34.333Z,58.40
2022-08-19T14:13:03.091Z,60.29
2022-08-19T14:15:31.121Z,61.46
2022-08-19T14:17:58.580Z,65.13
2022-08-19T14:20:26.041Z,67.46
2022-08-19T14:22:53.889Z,66.60
2022-08-19T14:25:23.874Z,66.20
2022-08-19T14:27:51.132Z,65.96
2022-08-19T14:30:29.279Z,65.81
2022-08-19T14:32:59.091Z,67.05
2022-08-19T14:35:28.005Z,67.70
2022-08-19T14:37:56.793Z,67.41
2022-08-19T14:40:29.715Z,70.36
2022-08-19T14:43:04.898Z,70.91
2022-08-19T14:45:37.146Z,70.40
2022-08-19T14:48:05.862Z,71.57
2022-08-19T14:50:33.166Z,68.98
2022-08-19T14:53:08.108Z,68.94
2022-08-19T14:55:42.574Z,71.05
2022-08-19T14:58:09.921Z,70.85
2022-08-19T15:00:57.105Z,69.05
2022-08-19T15:03:23.794Z,68.04
2022-08-19T15:05:50.499Z,68.71
2022-08-19T15:08:17.166Z,69.86
2022-08-19T15:10:43.813Z,68.99
2022-08-19T15:13:10.921Z,68.14
2022-08-19T15:15:38.319Z,67.77
2022-08-19T15:18:05.052Z,66.30
2022-08-19T15:20:32.036Z,63.97
2022-08-19T15:23:02.567Z,64.13
2022-08-19T15:25:29.424Z,62.36
2022-08-19T15:27:56.412Z,62.13
2022-08-19T15:30:26.160Z,61.81
2022-08-19T15:32:55.796Z,60.02
2022-08-19T15:35:23.466Z,57.69
2022-08-19T15:37:52.385Z,57.05
2022-08-19T15:40:21.123Z,54.44
2022-08-19T15:42:49.829Z,54.71
2022-08-19T15:45:18.997Z,54.05
2022-08-19T15:47:46.186Z,53.28
2022-08-19T15:50:19.163Z,49.98
2022-08-19T15:52:50.015Z,53.06
2022-08-19T15:55:33.673Z,52.15
2022-08-19T15:58:28.251Z,52.25
2022-08-19T16:01:20.653Z,53.16
2022-08-19T16:04:13.821Z,53.49
2022-08-19T16:06:44.157Z,50.06
2022-08-19T16:09:10.954Z,52.21
2022-08-19T16:11:39.717Z,49.25
2022-08-19T16:14:09.425Z,48.47
2022-08-19T16:16:37.311Z,48.94
2022-08-19T16:19:10.419Z,49.99
2022-08-19T16:21:41.880Z,48.80
2022-08-19T16:24:13.104Z,48.72
2022-08-19T16:26:41.240Z,48.25
2022-08-19T16:29:13.092Z,48.56
2022-08-19T16:31:44.584Z,47.81
2022-08-19T16:34:12.162Z,47.36
2022-08-19T16:36:42.055Z,48.29
2022-08-19T16:39:14.669Z,48.04
2022-08-19T16:41:42.684Z,48.69
2022-08-19T16:44:11.973Z,50.35
2022-08-19T16:46:39.874Z,50.05
2022-08-19T16:49:07.226Z,49.74
2022-08-19T16:51:33.933Z,49.72
2022-08-19T16:54:01.403Z,50.33
2022-08-19T16:56:29.028Z,51.13
2022-08-19T16:58:56.300Z,51.62
2022-08-19T17:01:23.002Z,52.06
2022-08-19T17:03:51.574Z,51.37
2022-08-19T17:06:21.151Z,51.51
2022-08-19T17:08:52.403Z,52.71
2022-08-19T17:11:21.207Z,52.98
2022-08-19T17:13:49.463Z,52.74
2022-08-19T17:16:18.651Z,51.93
2022-08-19T17:18:45.738Z,53.84
2022-08-19T17:21:13.333Z,54.69
2022-08-19T17:23:43.743Z,55.88
2022-08-19T17:26:18.035Z,56.80
2022-08-19T17:28:50.197Z,57.08
2022-08-19T17:31:19.306Z,56.18
2022-08-19T17:33:48.034Z,56.84
2022-08-19T17:36:23.400Z,57.16
2022-08-19T17:38:50.890Z,57.46
2022-08-19T17:41:17.656Z,58.51
2022-08-19T17:43:45.194Z,59.19
2022-08-19T17:46:22.419Z,59.38
2022-08-19T17:48:52.777Z,59.38
2022-08-19T17:51:42.393Z,59.61
2022-08-19T17:54:12.331Z,61.33
2022-08-19T17:56:39.167Z,61.30
2022-08-19T17:59:07.878Z,61.63
2022-08-19T18:01:53.543Z,62.18
2022-08-19T18:04:22.675Z,62.08
2022-08-19T18:06:53.106Z,62.05
2022-08-19T18:09:24.045Z,61.48
2022-08-19T18:11:53.242Z,62.00
2022-08-19T18:14:33.373Z,62.11
2022-08-19T18:17:12.492Z,61.83
2022-08-19T18:19:43.052Z,62.04
2022-08-19T18:22:36.374Z,61.38
2022-08-19T18:25:13.986Z,62.01
2022-08-19T18:27:43.431Z,61.88
2022-08-19T18:30:10.860Z,61.24
2022-08-19T18:32:39.434Z,61.00
2022-08-19T18:35:11.393Z,61.17
2022-08-19T18:37:40.403Z,60.83
2022-08-19T18:40:26.891Z,60.24
2022-08-19T18:43:22.388Z,60.77
2022-08-19T18:46:08.375Z,60.91
2022-08-19T18:48:54.890Z,60.45
2022-08-19T18:51:27.742Z,60.36
2022-08-19T18:53:57.279Z,60.52
2022-08-19T18:56:28.309Z,61.41
2022-08-19T18:58:58.788Z,62.13
2022-08-19T19:01:33.307Z,60.83
2022-08-19T19:04:11.391Z,59.76
2022-08-19T19:06:41.129Z,60.26
2022-08-19T19:09:10.531Z,59.44
2022-08-19T19:11:40.567Z,58.94
2022-08-19T19:14:23.309Z,58.75
2022-08-19T19:17:02.155Z,58.65
2022-08-19T19:19:30.739Z,58.90
2022-08-19T19:21:58.699Z,59.19
2022-08-19T19:24:32.700Z,59.50
2022-08-19T19:27:05.456Z,59.26
2022-08-19T19:29:37.192Z,58.98
2022-08-19T19:32:07.223Z,59.25
2022-08-19T19:34:34.193Z,59.27
2022-08-19T19:37:01.332Z,59.11
2022-08-19T19:39:34.012Z,59.63
2022-08-19T19:42:20.564Z,60.70
2022-08-19T19:44:50.580Z,59.40
2022-08-19T19:47:19.177Z,59.08
2022-08-19T19:52:39.728Z,58.62
2022-08-19T19:55:07.516Z,58.47
2022-08-19T19:57:34.251Z,58.65
2022-08-19T20:00:01.053Z,58.62
2022-08-19T20:02:27.757Z,58.65
2022-08-19T20:04:56.280Z,57.89
2022-08-19T20:07:43.831Z,57.39
2022-08-19T20:10:10.470Z,56.97
2022-08-19T20:12:37.148Z,56.79
2022-08-19T20:15:04.858Z,57.01
2022-08-19T20:17:32.607Z,56.59
2022-08-19T20:19:59.313Z,56.25
2022-08-19T20:22:26.032Z,55.79
2022-08-19T20:24:53.863Z,55.79
2022-08-19T20:27:21.608Z,55.60
2022-08-19T20:29:50.966Z,55.54
2022-08-19T20:32:18.659Z,56.07
2022-08-19T20:34:49.063Z,57.17
2022-08-19T20:37:15.878Z,58.13
2022-08-19T20:39:42.801Z,58.80
2022-08-19T20:42:09.446Z,61.44
2022-08-19T20:44:37.795Z,62.12
2022-08-19T20:47:04.713Z,62.73
2022-08-19T20:49:32.216Z,61.45
2022-08-19T20:51:58.917Z,60.54
2022-08-19T20:54:27.026Z,59.25
2022-08-19T20:56:53.747Z,59.17
2022-08-19T20:59:21.692Z,60.11
2022-08-19T21:01:51.741Z,59.67
2022-08-19T21:04:19.469Z,59.16
2022-08-19T21:06:46.192Z,58.96
2022-08-19T21:09:13.790Z,58.64
2022-08-19T21:11:40.647Z,59.65
2022-08-19T21:14:08.278Z,59.47
2022-08-19T21:16:34.976Z,58.57
2022-08-19T21:19:01.687Z,58.42
2022-08-19T21:21:28.738Z,59.19
2022-08-19T21:23:55.434Z,58.95
2022-08-19T21:26:22.096Z,58.21
2022-08-19T21:28:48.763Z,58.15
2022-08-19T21:31:17.832Z,58.28
2022-08-19T21:33:45.259Z,57.88
2022-08-19T21:36:12.091Z,57.36
2022-08-19T21:38:38.794Z,57.41
2022-08-19T21:41:06.549Z,57.26
2022-08-19T21:43:35.211Z,57.09
2022-08-19T21:46:02.317Z,57.58
2022-08-19T21:48:29.053Z,57.43
2022-08-19T21:50:55.864Z,57.04
2022-08-19T21:53:23.014Z,57.74
2022-08-19T21:55:53.508Z,58.34
2022-08-19T21:58:28.794Z,58.26
2022-08-19T22:00:58.676Z,58.49
2022-08-19T22:03:26.080Z,58.27
2022-08-19T22:05:52.855Z,58.68
2022-08-19T22:08:19.510Z,58.85
2022-08-19T22:10:46.489Z,58.24
2022-08-19T22:13:13.542Z,58.12
2022-08-19T22:15:41.098Z,58.02
2022-08-19T22:18:07.760Z,57.35
2022-08-19T22:20:34.459Z,56.86
2022-08-19T22:23:04.882Z,59.40
2022-08-19T22:25:35.522Z,58.55
2022-08-19T22:28:04.946Z,57.76
2022-08-19T22:30:35.847Z,57.59
2022-08-19T22:33:06.475Z,58.18
2022-08-19T22:35:37.527Z,57.32
2022-08-19T22:38:07.337Z,57.68
2022-08-19T22:40:39.548Z,57.29
2022-08-19T22:43:12.110Z,57.04
2022-08-19T22:45:39.261Z,57.19
2022-08-19T22:48:08.367Z,57.20
2022-08-19T22:50:36.243Z,58.07
2022-08-19T22:53:04.574Z,57.85
2022-08-19T22:55:31.448Z,57.41
2022-08-19T22:57:59.049Z,57.57
2022-08-19T23:00:27.978Z,57.66
2022-08-19T23:02:56.415Z,58.01
2022-08-19T23:05:26.074Z,58.56
2022-08-19T23:07:54.242Z,58.57
2022-08-19T23:10:26.968Z,59.61
2022-08-19T23:12:56.843Z,58.95
2022-08-19T23:15:26.545Z,59.26
2022-08-19T23:17:55.101Z,59.93
2022-08-19T23:20:23.672Z,60.55
2022-08-19T23:22:50.987Z,60.44
2022-08-19T23:25:21.155Z,60.81
2022-08-19T23:28:06.976Z,61.17
2022-08-19T23:30:36.755Z,60.48
2022-08-19T23:33:14.297Z,60.88
2022-08-19T23:35:41.746Z,60.89
2022-08-19T23:38:10.113Z,60.15
2022-08-19T23:40:38.550Z,61.28
2022-08-19T23:43:08.127Z,61.02
2022-08-19T23:45:41.320Z,59.72
2022-08-19T23:48:18.505Z,60.44
2022-08-19T23:50:46.267Z,61.40
2022-08-19T23:53:13.759Z,62.16
2022-08-19T23:55:43.111Z,62.79
2022-08-19T23:58:10.797Z,63.62
